Terminal Aerodrome Forecast
Issued by NWS

Home | Current Version | Previous Version | Text Only | Print | Product List | Glossary On
Versions: 1 2 3 4 5 6 7 8 9 10 11 12 13 14 15 16 17 18 19 20
000
FTUS43 KABR 041515 AAB
TAFATY
TAF AMD
KATY 041515Z 0415/0512 19014KT 6SM TS BKN100CB
     FM041600 15012KT P6SM VCTS BKN080CB
     FM042000 15012KT P6SM FEW250=

USA.gov is the U.S. government's official web portal to all federal, state and local government web resources and services.